Terminal Aerodrome Forecast
Issued by NWS

Home | Current Version | Previous Version | Text Only | Print | Product List | Glossary On
Versions: 1 2 3 4 5 6 7 8 9 10 11 12
000
FTUS45 KABQ 021730
TAFFMN
TAF
KFMN 021730Z 0218/0318 24008KT P6SM SCT070 BKN120
     FM022300 24012KT P6SM VCTS SCT040 BKN070CB
     FM030200 16009KT P6SM VCSH BKN080
     FM030700 06006KT P6SM BKN090=

USA.gov is the U.S. government's official web portal to all federal, state and local government web resources and services.